sensor_id;sensor_type;location;lat;lon;timestamp;temperature;humidity
15332;DHT22;7766;51.534;6.722;2022-12-22T00:09:19;10.00;99.90
15332;DHT22;7766;51.534;6.722;2022-12-22T00:11:57;10.10;99.90
15332;DHT22;7766;51.534;6.722;2022-12-22T00:22:53;10.00;99.90
15332;DHT22;7766;51.534;6.722;2022-12-22T00:26:51;10.10;99.90
15332;DHT22;7766;51.534;6.722;2022-12-22T00:28:12;10.10;99.90
15332;DHT22;7766;51.534;6.722;2022-12-22T00:40:23;10.20;99.90
15332;DHT22;7766;51.534;6.722;2022-12-22T00:41:45;10.20;99.90
15332;DHT22;7766;51.534;6.722;2022-12-22T00:49:46;10.20;99.90
15332;DHT22;7766;51.534;6.722;2022-12-22T01:19:19;10.30;99.90
15332;DHT22;7766;51.534;6.722;2022-12-22T01:21:57;10.20;99.90
15332;DHT22;7766;51.534;6.722;2022-12-22T01:27:15;10.40;99.90
15332;DHT22;7766;51.534;6.722;2022-12-22T01:34:10;10.40;99.90
15332;DHT22;7766;51.534;6.722;2022-12-22T01:38:11;10.30;99.90
15332;DHT22;7766;51.534;6.722;2022-12-22T01:40:51;10.30;99.90
15332;DHT22;7766;51.534;6.722;2022-12-22T01:42:12;10.30;99.90
15332;DHT22;7766;51.534;6.722;2022-12-22T01:49:35;10.40;99.90
15332;DHT22;7766;51.534;6.722;2022-12-22T01:53:48;10.30;99.90
15332;DHT22;7766;51.534;6.722;2022-12-22T01:59:12;10.40;99.90
15332;DHT22;7766;51.534;6.722;2022-12-22T02:01:51;10.40;99.90
15332;DHT22;7766;51.534;6.722;2022-12-22T15:33:30;10.10;99.90
15332;DHT22;7766;51.534;6.722;2022-12-22T15:38:37;10.20;99.90
15332;DHT22;7766;51.534;6.722;2022-12-22T16:07:43;10.40;99.90
15332;DHT22;7766;51.534;6.722;2022-12-22T16:23:35;10.50;99.90
15332;DHT22;7766;51.534;6.722;2022-12-22T16:57:00;10.00;99.90
15332;DHT22;7766;51.534;6.722;2022-12-22T16:58:01;10.00;99.90
15332;DHT22;7766;51.534;6.722;2022-12-22T17:11:22;9.80;99.90
15332;DHT22;7766;51.534;6.722;2022-12-22T17:25:04;10.00;99.90
15332;DHT22;7766;51.534;6.722;2022-12-22T17:29:19;9.90;99.90
15332;DHT22;7766;51.534;6.722;2022-12-22T17:34:36;10.10;99.90
15332;DHT22;7766;51.534;6.722;2022-12-22T17:37:40;10.10;99.90
15332;DHT22;7766;51.534;6.722;2022-12-22T17:39:43;10.10;99.90
15332;DHT22;7766;51.534;6.722;2022-12-22T17:40:47;10.10;99.90
15332;DHT22;7766;51.534;6.722;2022-12-22T17:41:48;10.10;99.90
15332;DHT22;7766;51.534;6.722;2022-12-22T17:49:57;10.20;99.90
15332;DHT22;7766;51.534;6.722;2022-12-22T17:50:59;10.20;99.90
15332;DHT22;7766;51.534;6.722;2022-12-22T17:53:01;10.20;99.90
15332;DHT22;7766;51.534;6.722;2022-12-22T17:54:03;10.10;99.90
15332;DHT22;7766;51.534;6.722;2022-12-22T17:55:04;10.10;99.90
15332;DHT22;7766;51.534;6.722;2022-12-22T17:56:16;10.10;99.90
15332;DHT22;7766;51.534;6.722;2022-12-22T17:57:23;10.10;99.90
15332;DHT22;7766;51.534;6.722;2022-12-22T18:02:34;10.10;99.90
15332;DHT22;7766;51.534;6.722;2022-12-22T18:05:40;10.20;99.90
15332;DHT22;7766;51.534;6.722;2022-12-22T18:06:43;10.20;99.90
15332;DHT22;7766;51.534;6.722;2022-12-22T18:07:45;10.20;99.90
15332;DHT22;7766;51.534;6.722;2022-12-22T18:08:48;10.20;99.90
15332;DHT22;7766;51.534;6.722;2022-12-22T18:09:55;10.20;99.90
15332;DHT22;7766;51.534;6.722;2022-12-22T18:11:00;10.20;99.90
15332;DHT22;7766;51.534;6.722;2022-12-22T18:12:02;10.20;99.90
15332;DHT22;7766;51.534;6.722;2022-12-22T18:13:04;10.10;99.90
15332;DHT22;7766;51.534;6.722;2022-12-22T18:14:13;10.10;99.90
15332;DHT22;7766;51.534;6.722;2022-12-22T18:15:16;10.10;99.90
15332;DHT22;7766;51.534;6.722;2022-12-22T18:16:19;10.10;99.90
15332;DHT22;7766;51.534;6.722;2022-12-22T18:17:30;10.10;99.90
15332;DHT22;7766;51.534;6.722;2022-12-22T18:18:31;10.10;99.90
15332;DHT22;7766;51.534;6.722;2022-12-22T18:23:36;10.20;99.90
15332;DHT22;7766;51.534;6.722;2022-12-22T18:24:37;10.20;99.90
15332;DHT22;7766;51.534;6.722;2022-12-22T18:29:42;10.20;99.90
15332;DHT22;7766;51.534;6.722;2022-12-22T18:32:47;10.40;99.90
15332;DHT22;7766;51.534;6.722;2022-12-22T18:33:49;10.40;99.90
15332;DHT22;7766;51.534;6.722;2022-12-22T18:35:51;10.30;99.90
15332;DHT22;7766;51.534;6.722;2022-12-22T18:36:52;10.30;99.90
15332;DHT22;7766;51.534;6.722;2022-12-22T18:37:54;10.30;99.90
15332;DHT22;7766;51.534;6.722;2022-12-22T18:38:55;10.30;99.90
15332;DHT22;7766;51.534;6.722;2022-12-22T18:39:59;10.30;99.90
15332;DHT22;7766;51.534;6.722;2022-12-22T18:43:11;10.30;99.90
15332;DHT22;7766;51.534;6.722;2022-12-22T18:44:16;10.30;99.90
15332;DHT22;7766;51.534;6.722;2022-12-22T18:45:19;10.30;99.90
15332;DHT22;7766;51.534;6.722;2022-12-22T18:46:22;10.30;99.90
15332;DHT22;7766;51.534;6.722;2022-12-22T18:48:24;10.30;99.90
15332;DHT22;7766;51.534;6.722;2022-12-22T18:50:27;10.30;99.90
15332;DHT22;7766;51.534;6.722;2022-12-22T18:55:36;10.20;99.90
15332;DHT22;7766;51.534;6.722;2022-12-22T18:56:36;10.20;99.90
15332;DHT22;7766;51.534;6.722;2022-12-22T18:57:37;10.20;99.90
15332;DHT22;7766;51.534;6.722;2022-12-22T18:58:42;10.20;99.90
15332;DHT22;7766;51.534;6.722;2022-12-22T18:59:43;10.10;99.90
15332;DHT22;7766;51.534;6.722;2022-12-22T19:02:49;10.20;99.90
15332;DHT22;7766;51.534;6.722;2022-12-22T19:03:54;10.20;99.90
15332;DHT22;7766;51.534;6.722;2022-12-22T19:05:57;10.10;99.90
15332;DHT22;7766;51.534;6.722;2022-12-22T19:07:58;10.20;99.90
15332;DHT22;7766;51.534;6.722;2022-12-22T19:11:04;10.20;99.90
15332;DHT22;7766;51.534;6.722;2022-12-22T19:12:12;10.20;99.90
15332;DHT22;7766;51.534;6.722;2022-12-22T19:13:38;10.20;99.90
15332;DHT22;7766;51.534;6.722;2022-12-22T19:14:47;10.20;99.90
15332;DHT22;7766;51.534;6.722;2022-12-22T19:16:52;10.20;99.90
15332;DHT22;7766;51.534;6.722;2022-12-22T19:19:57;10.20;99.90
15332;DHT22;7766;51.534;6.722;2022-12-22T19:21:58;10.10;99.90
15332;DHT22;7766;51.534;6.722;2022-12-22T19:25:01;10.20;99.90
15332;DHT22;7766;51.534;6.722;2022-12-22T19:26:02;10.20;99.90
15332;DHT22;7766;51.534;6.722;2022-12-22T19:28:11;10.20;99.90
15332;DHT22;7766;51.534;6.722;2022-12-22T19:30:23;10.20;99.90
15332;DHT22;7766;51.534;6.722;2022-12-22T19:31:26;10.20;99.90
15332;DHT22;7766;51.534;6.722;2022-12-22T19:32:31;10.20;99.90
15332;DHT22;7766;51.534;6.722;2022-12-22T19:33:41;10.20;99.90
15332;DHT22;7766;51.534;6.722;2022-12-22T19:34:42;10.20;99.90
15332;DHT22;7766;51.534;6.722;2022-12-22T19:35:43;10.20;99.90
15332;DHT22;7766;51.534;6.722;2022-12-22T19:37:46;10.20;99.90
15332;DHT22;7766;51.534;6.722;2022-12-22T19:40:52;10.20;99.90
15332;DHT22;7766;51.534;6.722;2022-12-22T19:42:58;10.20;99.90
15332;DHT22;7766;51.534;6.722;2022-12-22T19:45:01;10.10;99.90
15332;DHT22;7766;51.534;6.722;2022-12-22T19:47:16;10.20;99.90
15332;DHT22;7766;51.534;6.722;2022-12-22T19:48:23;10.20;99.90
15332;DHT22;7766;51.534;6.722;2022-12-22T19:49:26;10.20;99.90
15332;DHT22;7766;51.534;6.722;2022-12-22T19:50:30;10.20;99.90
15332;DHT22;7766;51.534;6.722;2022-12-22T19:55:48;10.20;99.90
15332;DHT22;7766;51.534;6.722;2022-12-22T19:56:53;10.20;99.90
15332;DHT22;7766;51.534;6.722;2022-12-22T19:58:57;10.20;99.90
15332;DHT22;7766;51.534;6.722;2022-12-22T20:01:01;10.20;99.90
15332;DHT22;7766;51.534;6.722;2022-12-22T20:02:05;10.20;99.90
15332;DHT22;7766;51.534;6.722;2022-12-22T20:03:24;10.20;99.90
15332;DHT22;7766;51.534;6.722;2022-12-22T20:04:25;10.20;99.90
15332;DHT22;7766;51.534;6.722;2022-12-22T20:05:29;10.20;99.90
15332;DHT22;7766;51.534;6.722;2022-12-22T20:07:31;10.30;99.90
15332;DHT22;7766;51.534;6.722;2022-12-22T20:08:36;10.20;99.90
15332;DHT22;7766;51.534;6.722;2022-12-22T20:09:36;10.20;99.90
15332;DHT22;7766;51.534;6.722;2022-12-22T20:10:38;10.20;99.90
15332;DHT22;7766;51.534;6.722;2022-12-22T20:11:41;10.20;99.90
15332;DHT22;7766;51.534;6.722;2022-12-22T20:12:44;10.20;99.90
15332;DHT22;7766;51.534;6.722;2022-12-22T20:13:46;10.20;99.90
15332;DHT22;7766;51.534;6.722;2022-12-22T20:14:48;10.20;99.90
15332;DHT22;7766;51.534;6.722;2022-12-22T20:15:49;10.20;99.90
15332;DHT22;7766;51.534;6.722;2022-12-22T20:17:53;10.20;99.90
15332;DHT22;7766;51.534;6.722;2022-12-22T20:22:03;10.20;99.90
15332;DHT22;7766;51.534;6.722;2022-12-22T20:23:10;10.20;99.90
15332;DHT22;7766;51.534;6.722;2022-12-22T20:24:20;10.20;99.90
15332;DHT22;7766;51.534;6.722;2022-12-22T20:25:24;10.20;99.90
15332;DHT22;7766;51.534;6.722;2022-12-22T20:27:31;10.20;99.90
15332;DHT22;7766;51.534;6.722;2022-12-22T20:28:36;10.30;99.90
15332;DHT22;7766;51.534;6.722;2022-12-22T20:30:39;10.30;99.90
15332;DHT22;7766;51.534;6.722;2022-12-22T20:34:43;10.30;99.90
15332;DHT22;7766;51.534;6.722;2022-12-22T20:35:46;10.30;99.90
15332;DHT22;7766;51.534;6.722;2022-12-22T20:36:48;10.30;99.90
15332;DHT22;7766;51.534;6.722;2022-12-22T20:37:49;10.30;99.90
15332;DHT22;7766;51.534;6.722;2022-12-22T20:38:51;10.30;99.90
15332;DHT22;7766;51.534;6.722;2022-12-22T20:42:56;10.30;99.90
15332;DHT22;7766;51.534;6.722;2022-12-22T20:44:58;10.40;99.90
15332;DHT22;7766;51.534;6.722;2022-12-22T20:46:01;10.40;99.90
15332;DHT22;7766;51.534;6.722;2022-12-22T20:47:10;10.40;99.90
15332;DHT22;7766;51.534;6.722;2022-12-22T20:48:36;10.40;99.90
15332;DHT22;7766;51.534;6.722;2022-12-22T20:49:39;10.40;99.90
15332;DHT22;7766;51.534;6.722;2022-12-22T20:51:41;10.50;99.90
15332;DHT22;7766;51.534;6.722;2022-12-22T20:53:44;10.50;99.90
15332;DHT22;7766;51.534;6.722;2022-12-22T20:55:46;10.50;99.90
15332;DHT22;7766;51.534;6.722;2022-12-22T20:57:49;10.50;99.90
15332;DHT22;7766;51.534;6.722;2022-12-22T20:59:52;10.50;99.90
15332;DHT22;7766;51.534;6.722;2022-12-22T21:00:57;10.60;99.90
15332;DHT22;7766;51.534;6.722;2022-12-22T21:01:58;10.60;99.90
15332;DHT22;7766;51.534;6.722;2022-12-22T21:06:28;10.60;99.90
15332;DHT22;7766;51.534;6.722;2022-12-22T21:08:34;10.60;99.90
15332;DHT22;7766;51.534;6.722;2022-12-22T21:10:36;10.70;99.90
15332;DHT22;7766;51.534;6.722;2022-12-22T21:14:42;10.70;99.90
15332;DHT22;7766;51.534;6.722;2022-12-22T21:15:43;10.70;99.90
15332;DHT22;7766;51.534;6.722;2022-12-22T21:16:47;10.70;99.90
15332;DHT22;7766;51.534;6.722;2022-12-22T21:18:50;10.80;99.90
15332;DHT22;7766;51.534;6.722;2022-12-22T21:19:51;10.80;99.90
15332;DHT22;7766;51.534;6.722;2022-12-22T21:25:57;10.80;99.90
15332;DHT22;7766;51.534;6.722;2022-12-22T21:27:59;10.80;99.90
15332;DHT22;7766;51.534;6.722;2022-12-22T21:29:04;10.80;99.90
15332;DHT22;7766;51.534;6.722;2022-12-22T21:30:19;10.80;99.90
15332;DHT22;7766;51.534;6.722;2022-12-22T21:32:30;10.80;99.90
15332;DHT22;7766;51.534;6.722;2022-12-22T21:33:31;10.80;99.90
15332;DHT22;7766;51.534;6.722;2022-12-22T21:35:34;10.80;99.90
15332;DHT22;7766;51.534;6.722;2022-12-22T21:37:37;10.80;99.90
15332;DHT22;7766;51.534;6.722;2022-12-22T21:39:40;10.80;99.90
15332;DHT22;7766;51.534;6.722;2022-12-22T21:41:48;10.80;99.90
15332;DHT22;7766;51.534;6.722;2022-12-22T21:44:03;10.80;99.90
15332;DHT22;7766;51.534;6.722;2022-12-22T21:47:12;10.90;99.90
15332;DHT22;7766;51.534;6.722;2022-12-22T21:48:17;10.90;99.90
15332;DHT22;7766;51.534;6.722;2022-12-22T21:49:30;10.90;99.90
15332;DHT22;7766;51.534;6.722;2022-12-22T21:50:33;10.90;99.90
15332;DHT22;7766;51.534;6.722;2022-12-22T21:51:34;10.90;99.90
15332;DHT22;7766;51.534;6.722;2022-12-22T21:58:42;10.90;99.90
15332;DHT22;7766;51.534;6.722;2022-12-22T22:00:47;11.00;99.90
15332;DHT22;7766;51.534;6.722;2022-12-22T22:01:49;10.90;99.90
15332;DHT22;7766;51.534;6.722;2022-12-22T22:02:54;11.00;99.90
15332;DHT22;7766;51.534;6.722;2022-12-22T22:06:58;10.90;99.90
15332;DHT22;7766;51.534;6.722;2022-12-22T22:07:59;10.90;99.90
15332;DHT22;7766;51.534;6.722;2022-12-22T22:09:01;10.90;99.90
15332;DHT22;7766;51.534;6.722;2022-12-22T22:10:04;10.90;99.90
15332;DHT22;7766;51.534;6.722;2022-12-22T22:11:15;10.90;99.90
15332;DHT22;7766;51.534;6.722;2022-12-22T22:14:36;10.90;99.90
15332;DHT22;7766;51.534;6.722;2022-12-22T22:15:37;10.80;99.90
15332;DHT22;7766;51.534;6.722;2022-12-22T22:17:39;10.80;99.90
15332;DHT22;7766;51.534;6.722;2022-12-22T22:18:42;10.90;99.90
15332;DHT22;7766;51.534;6.722;2022-12-22T22:20:45;10.90;99.90
15332;DHT22;7766;51.534;6.722;2022-12-22T22:21:46;10.90;99.90
15332;DHT22;7766;51.534;6.722;2022-12-22T22:22:48;10.90;99.90
15332;DHT22;7766;51.534;6.722;2022-12-22T22:24:52;10.90;99.90
15332;DHT22;7766;51.534;6.722;2022-12-22T22:25:57;10.90;99.90
15332;DHT22;7766;51.534;6.722;2022-12-22T22:30:01;10.90;99.90
15332;DHT22;7766;51.534;6.722;2022-12-22T22:31:10;10.90;99.90
15332;DHT22;7766;51.534;6.722;2022-12-22T22:32:11;10.90;99.90
15332;DHT22;7766;51.534;6.722;2022-12-22T22:34:13;10.90;99.90
15332;DHT22;7766;51.534;6.722;2022-12-22T22:38:20;10.90;99.90
15332;DHT22;7766;51.534;6.722;2022-12-22T22:39:21;10.80;99.90
15332;DHT22;7766;51.534;6.722;2022-12-22T22:40:24;10.90;99.90
15332;DHT22;7766;51.534;6.722;2022-12-22T22:43:27;10.90;99.90
15332;DHT22;7766;51.534;6.722;2022-12-22T22:44:27;10.90;99.90
15332;DHT22;7766;51.534;6.722;2022-12-22T22:48:31;10.80;99.90
15332;DHT22;7766;51.534;6.722;2022-12-22T22:50:33;10.70;99.90
15332;DHT22;7766;51.534;6.722;2022-12-22T22:54:37;10.70;99.90
15332;DHT22;7766;51.534;6.722;2022-12-22T22:56:39;10.70;99.90
15332;DHT22;7766;51.534;6.722;2022-12-22T22:57:40;10.70;99.90
15332;DHT22;7766;51.534;6.722;2022-12-22T22:58:41;10.70;99.90
15332;DHT22;7766;51.534;6.722;2022-12-22T23:00:43;10.80;99.90
15332;DHT22;7766;51.534;6.722;2022-12-22T23:03:46;10.70;99.90
15332;DHT22;7766;51.534;6.722;2022-12-22T23:11:59;10.70;99.90
15332;DHT22;7766;51.534;6.722;2022-12-22T23:15:01;10.70;99.90
15332;DHT22;7766;51.534;6.722;2022-12-22T23:16:03;10.80;99.90
15332;DHT22;7766;51.534;6.722;2022-12-22T23:21:10;10.70;99.90
15332;DHT22;7766;51.534;6.722;2022-12-22T23:22:11;10.70;99.90
15332;DHT22;7766;51.534;6.722;2022-12-22T23:23:11;10.80;99.90
15332;DHT22;7766;51.534;6.722;2022-12-22T23:26:15;10.80;99.90
15332;DHT22;7766;51.534;6.722;2022-12-22T23:27:16;10.70;99.90
15332;DHT22;7766;51.534;6.722;2022-12-22T23:28:17;10.70;99.90
15332;DHT22;7766;51.534;6.722;2022-12-22T23:29:18;10.80;99.90
15332;DHT22;7766;51.534;6.722;2022-12-22T23:30:19;10.70;99.90
15332;DHT22;7766;51.534;6.722;2022-12-22T23:39:28;10.80;99.90
15332;DHT22;7766;51.534;6.722;2022-12-22T23:42:31;10.80;99.90
15332;DHT22;7766;51.534;6.722;2022-12-22T23:44:33;10.90;99.90
15332;DHT22;7766;51.534;6.722;2022-12-22T23:50:44;10.90;99.90
15332;DHT22;7766;51.534;6.722;2022-12-22T23:51:45;10.90;99.90
15332;DHT22;7766;51.534;6.722;2022-12-22T23:54:48;10.90;99.90
15332;DHT22;7766;51.534;6.722;2022-12-22T23:55:49;10.90;99.90
15332;DHT22;7766;51.534;6.722;2022-12-22T23:57:52;10.90;99.90
